sensor_id;sensor_type;location;lat;lon;timestamp;temperature;humidity
59847;DHT22;45728;48.788;2.302;2023-01-05T00:00:05;13.60;99.90
59847;DHT22;45728;48.788;2.302;2023-01-05T00:02:32;13.60;99.90
59847;DHT22;45728;48.788;2.302;2023-01-05T00:04:58;13.60;99.90
59847;DHT22;45728;48.788;2.302;2023-01-05T00:07:24;13.60;99.90
59847;DHT22;45728;48.788;2.302;2023-01-05T00:09:50;13.60;99.90
59847;DHT22;45728;48.788;2.302;2023-01-05T00:12:16;13.60;99.90
59847;DHT22;45728;48.788;2.302;2023-01-05T00:15:17;13.60;99.90
59847;DHT22;45728;48.788;2.302;2023-01-05T00:18:01;13.50;99.90
59847;DHT22;45728;48.788;2.302;2023-01-05T00:20:46;13.40;99.90
59847;DHT22;45728;48.788;2.302;2023-01-05T00:23:31;13.40;99.90
59847;DHT22;45728;48.788;2.302;2023-01-05T00:25:57;13.40;99.90
59847;DHT22;45728;48.788;2.302;2023-01-05T00:28:23;13.40;99.90
59847;DHT22;45728;48.788;2.302;2023-01-05T00:30:49;13.40;99.90
59847;DHT22;45728;48.788;2.302;2023-01-05T00:33:16;13.40;99.90
59847;DHT22;45728;48.788;2.302;2023-01-05T00:35:42;13.40;99.90
59847;DHT22;45728;48.788;2.302;2023-01-05T00:38:09;13.40;99.90
59847;DHT22;45728;48.788;2.302;2023-01-05T00:40:35;13.40;99.90
59847;DHT22;45728;48.788;2.302;2023-01-05T00:43:01;13.40;99.90
59847;DHT22;45728;48.788;2.302;2023-01-05T00:45:27;13.40;99.90
59847;DHT22;45728;48.788;2.302;2023-01-05T00:47:53;13.40;99.90
59847;DHT22;45728;48.788;2.302;2023-01-05T00:50:21;13.40;99.90
59847;DHT22;45728;48.788;2.302;2023-01-05T00:52:48;13.40;99.90
59847;DHT22;45728;48.788;2.302;2023-01-05T00:55:14;13.30;99.90
59847;DHT22;45728;48.788;2.302;2023-01-05T00:57:40;13.40;99.90
59847;DHT22;45728;48.788;2.302;2023-01-05T01:00:15;13.40;99.90
59847;DHT22;45728;48.788;2.302;2023-01-05T01:02:42;13.40;99.90
59847;DHT22;45728;48.788;2.302;2023-01-05T01:05:09;13.30;99.90
59847;DHT22;45728;48.788;2.302;2023-01-05T01:07:35;13.30;99.90
59847;DHT22;45728;48.788;2.302;2023-01-05T01:10:01;13.30;99.90
59847;DHT22;45728;48.788;2.302;2023-01-05T01:12:27;13.30;99.90
59847;DHT22;45728;48.788;2.302;2023-01-05T01:14:53;13.30;99.90
59847;DHT22;45728;48.788;2.302;2023-01-05T01:17:19;13.30;99.90
59847;DHT22;45728;48.788;2.302;2023-01-05T01:19:45;13.30;99.90
59847;DHT22;45728;48.788;2.302;2023-01-05T01:22:12;13.20;99.90
59847;DHT22;45728;48.788;2.302;2023-01-05T01:24:38;13.20;99.90
59847;DHT22;45728;48.788;2.302;2023-01-05T01:27:04;13.20;99.90
59847;DHT22;45728;48.788;2.302;2023-01-05T01:29:30;13.20;99.90
59847;DHT22;45728;48.788;2.302;2023-01-05T01:31:56;13.20;99.90
59847;DHT22;45728;48.788;2.302;2023-01-05T01:34:23;13.20;99.90
59847;DHT22;45728;48.788;2.302;2023-01-05T01:36:49;13.20;99.90
59847;DHT22;45728;48.788;2.302;2023-01-05T01:39:15;13.20;99.90
59847;DHT22;45728;48.788;2.302;2023-01-05T01:41:41;13.10;99.90
59847;DHT22;45728;48.788;2.302;2023-01-05T01:47:14;13.10;99.90
59847;DHT22;45728;48.788;2.302;2023-01-05T01:49:41;13.20;99.90
59847;DHT22;45728;48.788;2.302;2023-01-05T01:52:08;13.20;99.90
59847;DHT22;45728;48.788;2.302;2023-01-05T01:54:34;13.10;99.90
59847;DHT22;45728;48.788;2.302;2023-01-05T01:57:00;13.10;99.90
59847;DHT22;45728;48.788;2.302;2023-01-05T01:59:27;13.10;99.90
59847;DHT22;45728;48.788;2.302;2023-01-05T02:01:56;13.00;99.90
59847;DHT22;45728;48.788;2.302;2023-01-05T02:04:24;13.00;99.90
59847;DHT22;45728;48.788;2.302;2023-01-05T02:06:51;13.10;99.90
59847;DHT22;45728;48.788;2.302;2023-01-05T02:09:18;13.10;99.90
59847;DHT22;45728;48.788;2.302;2023-01-05T02:16:45;13.00;99.90
59847;DHT22;45728;48.788;2.302;2023-01-05T02:25:10;13.00;99.90
59847;DHT22;45728;48.788;2.302;2023-01-05T02:27:46;13.00;99.90
59847;DHT22;45728;48.788;2.302;2023-01-05T02:35:33;12.80;99.90
59847;DHT22;45728;48.788;2.302;2023-01-05T02:38:20;12.90;99.90
59847;DHT22;45728;48.788;2.302;2023-01-05T02:40:50;12.90;99.90
59847;DHT22;45728;48.788;2.302;2023-01-05T02:43:19;12.90;99.90
59847;DHT22;45728;48.788;2.302;2023-01-05T02:45:46;12.80;99.90
59847;DHT22;45728;48.788;2.302;2023-01-05T02:48:13;12.90;99.90
59847;DHT22;45728;48.788;2.302;2023-01-05T02:50:51;12.90;99.90
59847;DHT22;45728;48.788;2.302;2023-01-05T02:53:22;12.90;99.90
59847;DHT22;45728;48.788;2.302;2023-01-05T02:55:56;12.90;99.90
59847;DHT22;45728;48.788;2.302;2023-01-05T02:58:30;12.90;99.90
59847;DHT22;45728;48.788;2.302;2023-01-05T03:01:09;12.90;99.90
59847;DHT22;45728;48.788;2.302;2023-01-05T03:04:06;12.80;99.90
59847;DHT22;45728;48.788;2.302;2023-01-05T03:06:38;12.80;99.90
59847;DHT22;45728;48.788;2.302;2023-01-05T03:09:14;12.90;99.90
59847;DHT22;45728;48.788;2.302;2023-01-05T03:12:33;12.80;99.90
59847;DHT22;45728;48.788;2.302;2023-01-05T03:15:36;12.80;99.90
59847;DHT22;45728;48.788;2.302;2023-01-05T03:17:47;12.80;99.90
59847;DHT22;45728;48.788;2.302;2023-01-05T03:20:16;12.80;99.90
59847;DHT22;45728;48.788;2.302;2023-01-05T03:22:45;12.80;99.90
59847;DHT22;45728;48.788;2.302;2023-01-05T03:25:32;12.80;99.90
59847;DHT22;45728;48.788;2.302;2023-01-05T03:28:21;12.90;99.90
59847;DHT22;45728;48.788;2.302;2023-01-05T03:37:15;12.80;99.90
59847;DHT22;45728;48.788;2.302;2023-01-05T03:39:44;12.80;99.90
59847;DHT22;45728;48.788;2.302;2023-01-05T03:42:11;12.80;99.90
59847;DHT22;45728;48.788;2.302;2023-01-05T03:44:39;12.80;99.90
59847;DHT22;45728;48.788;2.302;2023-01-05T03:47:06;12.80;99.90
59847;DHT22;45728;48.788;2.302;2023-01-05T03:49:32;12.80;99.90
59847;DHT22;45728;48.788;2.302;2023-01-05T03:51:58;12.90;99.90
59847;DHT22;45728;48.788;2.302;2023-01-05T03:54:24;12.90;99.90
59847;DHT22;45728;48.788;2.302;2023-01-05T03:56:50;12.90;99.90
59847;DHT22;45728;48.788;2.302;2023-01-05T03:59:16;12.90;99.90
59847;DHT22;45728;48.788;2.302;2023-01-05T04:01:42;12.90;99.90
59847;DHT22;45728;48.788;2.302;2023-01-05T04:04:08;12.80;99.90
59847;DHT22;45728;48.788;2.302;2023-01-05T04:06:35;12.80;99.90
59847;DHT22;45728;48.788;2.302;2023-01-05T04:09:01;12.70;99.90
59847;DHT22;45728;48.788;2.302;2023-01-05T04:11:27;12.80;99.90
59847;DHT22;45728;48.788;2.302;2023-01-05T04:13:53;12.80;99.90
59847;DHT22;45728;48.788;2.302;2023-01-05T04:16:19;12.80;99.90
59847;DHT22;45728;48.788;2.302;2023-01-05T04:18:45;12.80;99.90
59847;DHT22;45728;48.788;2.302;2023-01-05T04:21:11;12.90;99.90
59847;DHT22;45728;48.788;2.302;2023-01-05T04:23:37;12.90;99.90
59847;DHT22;45728;48.788;2.302;2023-01-05T04:26:04;12.90;99.90
59847;DHT22;45728;48.788;2.302;2023-01-05T04:28:30;13.00;99.90
59847;DHT22;45728;48.788;2.302;2023-01-05T04:30:56;12.90;99.90
59847;DHT22;45728;48.788;2.302;2023-01-05T04:33:23;12.90;99.90
59847;DHT22;45728;48.788;2.302;2023-01-05T04:35:49;12.90;99.90
59847;DHT22;45728;48.788;2.302;2023-01-05T04:38:16;13.00;99.90
59847;DHT22;45728;48.788;2.302;2023-01-05T04:40:47;12.90;99.90
59847;DHT22;45728;48.788;2.302;2023-01-05T04:43:13;13.00;99.90
59847;DHT22;45728;48.788;2.302;2023-01-05T04:45:39;12.90;99.90
59847;DHT22;45728;48.788;2.302;2023-01-05T04:48:05;13.00;99.90
59847;DHT22;45728;48.788;2.302;2023-01-05T04:50:31;12.90;99.90
59847;DHT22;45728;48.788;2.302;2023-01-05T04:52:57;12.90;99.90
59847;DHT22;45728;48.788;2.302;2023-01-05T04:55:23;12.90;99.90
59847;DHT22;45728;48.788;2.302;2023-01-05T04:57:49;12.90;99.90
59847;DHT22;45728;48.788;2.302;2023-01-05T05:00:15;12.90;99.90
59847;DHT22;45728;48.788;2.302;2023-01-05T05:02:42;12.90;99.90
59847;DHT22;45728;48.788;2.302;2023-01-05T05:05:08;12.90;99.90
59847;DHT22;45728;48.788;2.302;2023-01-05T05:07:34;12.90;99.90
59847;DHT22;45728;48.788;2.302;2023-01-05T05:10:00;12.90;99.90
59847;DHT22;45728;48.788;2.302;2023-01-05T05:12:26;12.90;99.90
59847;DHT22;45728;48.788;2.302;2023-01-05T05:14:52;12.90;99.90
59847;DHT22;45728;48.788;2.302;2023-01-05T05:17:18;12.90;99.90
59847;DHT22;45728;48.788;2.302;2023-01-05T05:19:44;12.90;99.90
59847;DHT22;45728;48.788;2.302;2023-01-05T05:22:10;12.90;99.90
59847;DHT22;45728;48.788;2.302;2023-01-05T05:24:36;12.80;99.90
59847;DHT22;45728;48.788;2.302;2023-01-05T05:27:03;12.80;99.90
59847;DHT22;45728;48.788;2.302;2023-01-05T05:29:29;12.80;99.90
59847;DHT22;45728;48.788;2.302;2023-01-05T05:31:55;12.80;99.90
59847;DHT22;45728;48.788;2.302;2023-01-05T05:34:21;12.80;99.90
59847;DHT22;45728;48.788;2.302;2023-01-05T05:36:47;12.80;99.90
59847;DHT22;45728;48.788;2.302;2023-01-05T05:39:14;12.70;99.90
59847;DHT22;45728;48.788;2.302;2023-01-05T05:41:41;12.70;99.90
59847;DHT22;45728;48.788;2.302;2023-01-05T05:44:07;12.70;99.90
59847;DHT22;45728;48.788;2.302;2023-01-05T05:46:33;12.70;99.90
59847;DHT22;45728;48.788;2.302;2023-01-05T05:48:59;12.70;99.90
59847;DHT22;45728;48.788;2.302;2023-01-05T05:51:26;12.70;99.90
59847;DHT22;45728;48.788;2.302;2023-01-05T05:53:52;12.60;99.90
59847;DHT22;45728;48.788;2.302;2023-01-05T05:56:19;12.60;99.90
59847;DHT22;45728;48.788;2.302;2023-01-05T05:58:45;12.60;99.90
59847;DHT22;45728;48.788;2.302;2023-01-05T06:01:11;12.60;99.90
59847;DHT22;45728;48.788;2.302;2023-01-05T06:03:37;12.60;99.90
59847;DHT22;45728;48.788;2.302;2023-01-05T06:06:03;12.70;99.90
59847;DHT22;45728;48.788;2.302;2023-01-05T06:08:30;12.70;99.90
59847;DHT22;45728;48.788;2.302;2023-01-05T06:10:56;12.70;99.90
59847;DHT22;45728;48.788;2.302;2023-01-05T06:13:23;12.70;99.90
59847;DHT22;45728;48.788;2.302;2023-01-05T06:15:49;12.70;99.90
59847;DHT22;45728;48.788;2.302;2023-01-05T06:18:16;12.60;99.90
59847;DHT22;45728;48.788;2.302;2023-01-05T06:20:42;12.70;99.90
59847;DHT22;45728;48.788;2.302;2023-01-05T06:23:09;12.70;99.90
59847;DHT22;45728;48.788;2.302;2023-01-05T06:25:35;12.70;99.90
59847;DHT22;45728;48.788;2.302;2023-01-05T06:28:02;12.70;99.90
59847;DHT22;45728;48.788;2.302;2023-01-05T06:30:28;12.80;99.90
59847;DHT22;45728;48.788;2.302;2023-01-05T06:32:54;12.80;99.90
59847;DHT22;45728;48.788;2.302;2023-01-05T06:35:20;12.80;99.90
59847;DHT22;45728;48.788;2.302;2023-01-05T06:37:46;12.70;99.90
59847;DHT22;45728;48.788;2.302;2023-01-05T06:40:12;12.80;99.90
59847;DHT22;45728;48.788;2.302;2023-01-05T06:42:39;12.70;99.90
59847;DHT22;45728;48.788;2.302;2023-01-05T06:45:06;12.70;99.90
59847;DHT22;45728;48.788;2.302;2023-01-05T06:47:32;12.80;99.90
59847;DHT22;45728;48.788;2.302;2023-01-05T06:49:58;12.80;99.90
59847;DHT22;45728;48.788;2.302;2023-01-05T06:52:24;12.80;99.90
59847;DHT22;45728;48.788;2.302;2023-01-05T06:54:50;12.80;99.90
59847;DHT22;45728;48.788;2.302;2023-01-05T06:57:16;12.90;99.90
59847;DHT22;45728;48.788;2.302;2023-01-05T06:59:43;12.80;99.90
59847;DHT22;45728;48.788;2.302;2023-01-05T07:02:14;12.80;99.90
59847;DHT22;45728;48.788;2.302;2023-01-05T07:04:41;12.80;99.90
59847;DHT22;45728;48.788;2.302;2023-01-05T07:07:13;12.90;99.90
59847;DHT22;45728;48.788;2.302;2023-01-05T07:09:40;12.90;99.90
59847;DHT22;45728;48.788;2.302;2023-01-05T07:12:06;12.80;99.90
59847;DHT22;45728;48.788;2.302;2023-01-05T07:14:33;12.90;99.90
59847;DHT22;45728;48.788;2.302;2023-01-05T07:16:59;12.80;99.90
59847;DHT22;45728;48.788;2.302;2023-01-05T07:19:25;12.90;99.90
59847;DHT22;45728;48.788;2.302;2023-01-05T07:21:51;12.90;99.90
59847;DHT22;45728;48.788;2.302;2023-01-05T07:24:17;12.90;99.90
59847;DHT22;45728;48.788;2.302;2023-01-05T07:26:43;12.80;99.90
59847;DHT22;45728;48.788;2.302;2023-01-05T07:29:09;12.90;99.90
59847;DHT22;45728;48.788;2.302;2023-01-05T07:31:35;12.90;99.90
59847;DHT22;45728;48.788;2.302;2023-01-05T07:34:01;12.90;99.90
59847;DHT22;45728;48.788;2.302;2023-01-05T07:36:27;12.80;99.90
59847;DHT22;45728;48.788;2.302;2023-01-05T07:41:57;12.90;99.90
59847;DHT22;45728;48.788;2.302;2023-01-05T07:44:23;12.90;99.90
59847;DHT22;45728;48.788;2.302;2023-01-05T07:46:49;12.90;99.90
59847;DHT22;45728;48.788;2.302;2023-01-05T07:49:15;12.80;99.90
59847;DHT22;45728;48.788;2.302;2023-01-05T07:51:41;12.90;99.90
59847;DHT22;45728;48.788;2.302;2023-01-05T07:54:07;12.90;99.90
59847;DHT22;45728;48.788;2.302;2023-01-05T07:56:34;12.90;99.90
59847;DHT22;45728;48.788;2.302;2023-01-05T07:59:00;12.80;99.90
59847;DHT22;45728;48.788;2.302;2023-01-05T08:01:26;12.80;99.90
59847;DHT22;45728;48.788;2.302;2023-01-05T08:03:52;12.80;99.90
59847;DHT22;45728;48.788;2.302;2023-01-05T08:06:19;12.80;99.90
59847;DHT22;45728;48.788;2.302;2023-01-05T08:08:46;12.90;99.90
59847;DHT22;45728;48.788;2.302;2023-01-05T08:11:14;12.90;99.90
59847;DHT22;45728;48.788;2.302;2023-01-05T08:13:44;12.90;99.90
59847;DHT22;45728;48.788;2.302;2023-01-05T08:16:26;12.90;99.90
59847;DHT22;45728;48.788;2.302;2023-01-05T08:18:53;12.90;99.90
59847;DHT22;45728;48.788;2.302;2023-01-05T08:21:19;12.90;99.90
59847;DHT22;45728;48.788;2.302;2023-01-05T08:23:45;12.90;99.90
59847;DHT22;45728;48.788;2.302;2023-01-05T08:26:13;13.00;99.90
59847;DHT22;45728;48.788;2.302;2023-01-05T08:28:40;13.00;99.90
59847;DHT22;45728;48.788;2.302;2023-01-05T08:31:11;12.90;99.90
59847;DHT22;45728;48.788;2.302;2023-01-05T08:33:37;12.90;99.90
59847;DHT22;45728;48.788;2.302;2023-01-05T08:36:08;12.90;99.90
59847;DHT22;45728;48.788;2.302;2023-01-05T08:38:35;12.90;99.90
59847;DHT22;45728;48.788;2.302;2023-01-05T08:41:01;12.90;99.90
59847;DHT22;45728;48.788;2.302;2023-01-05T08:43:27;12.90;99.90
59847;DHT22;45728;48.788;2.302;2023-01-05T08:45:53;12.90;99.90
59847;DHT22;45728;48.788;2.302;2023-01-05T08:48:19;12.90;99.90
59847;DHT22;45728;48.788;2.302;2023-01-05T08:50:45;13.00;99.90
59847;DHT22;45728;48.788;2.302;2023-01-05T08:53:11;12.90;99.90
59847;DHT22;45728;48.788;2.302;2023-01-05T08:55:38;12.90;99.90
59847;DHT22;45728;48.788;2.302;2023-01-05T08:58:04;13.00;99.90
59847;DHT22;45728;48.788;2.302;2023-01-05T09:00:33;13.00;99.90
59847;DHT22;45728;48.788;2.302;2023-01-05T09:02:59;13.00;99.90
59847;DHT22;45728;48.788;2.302;2023-01-05T09:05:26;13.10;99.90
59847;DHT22;45728;48.788;2.302;2023-01-05T09:07:52;13.00;99.90
59847;DHT22;45728;48.788;2.302;2023-01-05T09:10:18;13.00;99.90
59847;DHT22;45728;48.788;2.302;2023-01-05T09:12:44;13.10;99.90
59847;DHT22;45728;48.788;2.302;2023-01-05T09:15:10;13.10;99.90
59847;DHT22;45728;48.788;2.302;2023-01-05T09:17:36;13.10;99.90
59847;DHT22;45728;48.788;2.302;2023-01-05T09:20:04;13.10;99.90
59847;DHT22;45728;48.788;2.302;2023-01-05T09:22:30;13.10;99.90
59847;DHT22;45728;48.788;2.302;2023-01-05T09:24:57;13.10;99.90
59847;DHT22;45728;48.788;2.302;2023-01-05T09:27:23;13.20;99.90
59847;DHT22;45728;48.788;2.302;2023-01-05T09:29:49;13.20;99.90
59847;DHT22;45728;48.788;2.302;2023-01-05T09:32:15;13.20;99.90
59847;DHT22;45728;48.788;2.302;2023-01-05T09:34:41;13.30;99.90
59847;DHT22;45728;48.788;2.302;2023-01-05T09:37:07;13.20;99.90
59847;DHT22;45728;48.788;2.302;2023-01-05T09:39:34;13.30;99.90
59847;DHT22;45728;48.788;2.302;2023-01-05T09:42:02;13.30;99.90
59847;DHT22;45728;48.788;2.302;2023-01-05T09:44:35;13.30;99.90
59847;DHT22;45728;48.788;2.302;2023-01-05T09:49:37;13.30;99.90
59847;DHT22;45728;48.788;2.302;2023-01-05T09:52:06;13.30;99.90
59847;DHT22;45728;48.788;2.302;2023-01-05T09:54:35;13.30;99.90
59847;DHT22;45728;48.788;2.302;2023-01-05T09:57:03;13.30;99.90
59847;DHT22;45728;48.788;2.302;2023-01-05T09:59:33;13.40;99.90
59847;DHT22;45728;48.788;2.302;2023-01-05T10:02:08;13.40;99.90
59847;DHT22;45728;48.788;2.302;2023-01-05T10:04:39;13.40;99.90
59847;DHT22;45728;48.788;2.302;2023-01-05T10:07:12;13.40;99.90
59847;DHT22;45728;48.788;2.302;2023-01-05T10:09:40;13.40;99.90
59847;DHT22;45728;48.788;2.302;2023-01-05T10:12:30;13.40;99.90
59847;DHT22;45728;48.788;2.302;2023-01-05T10:15:20;13.50;99.90
59847;DHT22;45728;48.788;2.302;2023-01-05T10:17:46;13.50;99.90
59847;DHT22;45728;48.788;2.302;2023-01-05T10:20:17;13.50;99.90
59847;DHT22;45728;48.788;2.302;2023-01-05T10:23:05;13.50;99.90
59847;DHT22;45728;48.788;2.302;2023-01-05T10:25:52;13.50;99.90
59847;DHT22;45728;48.788;2.302;2023-01-05T10:28:39;13.50;99.90
59847;DHT22;45728;48.788;2.302;2023-01-05T10:31:40;13.60;99.90
59847;DHT22;45728;48.788;2.302;2023-01-05T10:34:27;13.60;99.90
59847;DHT22;45728;48.788;2.302;2023-01-05T10:40:11;13.60;99.90
59847;DHT22;45728;48.788;2.302;2023-01-05T10:45:36;13.70;99.90
59847;DHT22;45728;48.788;2.302;2023-01-05T10:48:03;13.70;99.90
59847;DHT22;45728;48.788;2.302;2023-01-05T10:50:41;13.80;99.90
59847;DHT22;45728;48.788;2.302;2023-01-05T10:53:14;13.90;99.90
59847;DHT22;45728;48.788;2.302;2023-01-05T10:58:42;13.80;99.90
59847;DHT22;45728;48.788;2.302;2023-01-05T11:01:22;13.80;99.90
59847;DHT22;45728;48.788;2.302;2023-01-05T11:03:53;13.80;99.90
59847;DHT22;45728;48.788;2.302;2023-01-05T11:06:28;13.90;99.90
59847;DHT22;45728;48.788;2.302;2023-01-05T11:09:26;14.00;99.90
59847;DHT22;45728;48.788;2.302;2023-01-05T11:12:01;14.10;99.90
59847;DHT22;45728;48.788;2.302;2023-01-05T11:14:30;14.00;99.90
59847;DHT22;45728;48.788;2.302;2023-01-05T11:17:02;14.00;99.90
59847;DHT22;45728;48.788;2.302;2023-01-05T11:19:36;13.80;99.90
59847;DHT22;45728;48.788;2.302;2023-01-05T11:27:37;13.80;99.90
59847;DHT22;45728;48.788;2.302;2023-01-05T11:30:19;13.80;99.90
59847;DHT22;45728;48.788;2.302;2023-01-05T11:32:46;13.80;99.90
59847;DHT22;45728;48.788;2.302;2023-01-05T11:37:44;13.80;99.90
59847;DHT22;45728;48.788;2.302;2023-01-05T11:40:18;13.70;99.90
59847;DHT22;45728;48.788;2.302;2023-01-05T11:42:45;13.80;99.90
59847;DHT22;45728;48.788;2.302;2023-01-05T11:45:32;13.80;99.90
59847;DHT22;45728;48.788;2.302;2023-01-05T11:48:01;13.80;99.90
59847;DHT22;45728;48.788;2.302;2023-01-05T11:50:42;13.80;99.90
59847;DHT22;45728;48.788;2.302;2023-01-05T11:56:21;13.70;99.90
59847;DHT22;45728;48.788;2.302;2023-01-05T11:58:56;13.70;99.90
59847;DHT22;45728;48.788;2.302;2023-01-05T12:09:44;13.70;99.90
59847;DHT22;45728;48.788;2.302;2023-01-05T12:12:32;13.60;99.90
59847;DHT22;45728;48.788;2.302;2023-01-05T12:18:23;13.60;99.90
59847;DHT22;45728;48.788;2.302;2023-01-05T12:23:51;13.60;99.90
59847;DHT22;45728;48.788;2.302;2023-01-05T12:26:29;13.70;99.90
59847;DHT22;45728;48.788;2.302;2023-01-05T12:49:03;13.70;99.90
59847;DHT22;45728;48.788;2.302;2023-01-05T12:51:39;13.60;99.90
59847;DHT22;45728;48.788;2.302;2023-01-05T12:56:59;13.70;99.90
59847;DHT22;45728;48.788;2.302;2023-01-05T12:59:27;13.70;99.90
59847;DHT22;45728;48.788;2.302;2023-01-05T13:04:54;13.60;99.90
59847;DHT22;45728;48.788;2.302;2023-01-05T13:07:26;13.60;99.90
59847;DHT22;45728;48.788;2.302;2023-01-05T13:09:58;13.60;99.90
59847;DHT22;45728;48.788;2.302;2023-01-05T13:12:25;13.60;99.90
59847;DHT22;45728;48.788;2.302;2023-01-05T13:17:39;13.60;99.90
59847;DHT22;45728;48.788;2.302;2023-01-05T13:20:30;13.60;99.90
59847;DHT22;45728;48.788;2.302;2023-01-05T13:23:15;13.60;99.90
59847;DHT22;45728;48.788;2.302;2023-01-05T13:26:03;13.60;99.90
59847;DHT22;45728;48.788;2.302;2023-01-05T13:28:30;13.60;99.90
59847;DHT22;45728;48.788;2.302;2023-01-05T13:37:03;13.60;99.90
59847;DHT22;45728;48.788;2.302;2023-01-05T13:53:21;13.50;99.90
59847;DHT22;45728;48.788;2.302;2023-01-05T13:55:53;13.50;99.90
59847;DHT22;45728;48.788;2.302;2023-01-05T13:58:40;13.50;99.90
59847;DHT22;45728;48.788;2.302;2023-01-05T14:01:12;13.50;99.90
59847;DHT22;45728;48.788;2.302;2023-01-05T14:03:45;13.60;99.90
59847;DHT22;45728;48.788;2.302;2023-01-05T14:06:27;13.60;99.90
59847;DHT22;45728;48.788;2.302;2023-01-05T14:09:00;13.60;99.90
59847;DHT22;45728;48.788;2.302;2023-01-05T14:11:28;13.60;99.90
59847;DHT22;45728;48.788;2.302;2023-01-05T14:19:46;13.70;99.90
59847;DHT22;45728;48.788;2.302;2023-01-05T14:24:45;13.50;99.90
59847;DHT22;45728;48.788;2.302;2023-01-05T14:27:18;13.50;99.90
59847;DHT22;45728;48.788;2.302;2023-01-05T14:35:06;13.50;99.90
59847;DHT22;45728;48.788;2.302;2023-01-05T14:40:47;13.50;99.90
59847;DHT22;45728;48.788;2.302;2023-01-05T14:43:45;13.40;99.90
59847;DHT22;45728;48.788;2.302;2023-01-05T14:46:20;13.40;99.90
59847;DHT22;45728;48.788;2.302;2023-01-05T14:48:58;13.50;99.90
59847;DHT22;45728;48.788;2.302;2023-01-05T14:51:27;13.60;99.90
59847;DHT22;45728;48.788;2.302;2023-01-05T14:53:57;13.60;99.90
59847;DHT22;45728;48.788;2.302;2023-01-05T14:56:25;13.50;99.90
59847;DHT22;45728;48.788;2.302;2023-01-05T15:01:26;13.50;99.90
59847;DHT22;45728;48.788;2.302;2023-01-05T15:04:02;13.60;99.90
59847;DHT22;45728;48.788;2.302;2023-01-05T15:12:39;13.40;99.90
59847;DHT22;45728;48.788;2.302;2023-01-05T15:18:12;13.50;99.90
59847;DHT22;45728;48.788;2.302;2023-01-05T15:21:33;13.40;99.90
59847;DHT22;45728;48.788;2.302;2023-01-05T15:26:52;13.40;99.90
59847;DHT22;45728;48.788;2.302;2023-01-05T15:29:50;13.30;99.90
59847;DHT22;45728;48.788;2.302;2023-01-05T15:32:21;13.30;99.90
59847;DHT22;45728;48.788;2.302;2023-01-05T15:37:41;13.20;99.90
59847;DHT22;45728;48.788;2.302;2023-01-05T15:42:47;13.10;99.90
59847;DHT22;45728;48.788;2.302;2023-01-05T15:45:33;13.20;99.90
59847;DHT22;45728;48.788;2.302;2023-01-05T15:48:05;13.10;99.90
59847;DHT22;45728;48.788;2.302;2023-01-05T15:50:46;13.10;99.90
59847;DHT22;45728;48.788;2.302;2023-01-05T15:55:55;13.10;99.90
59847;DHT22;45728;48.788;2.302;2023-01-05T15:58:22;13.10;99.90
59847;DHT22;45728;48.788;2.302;2023-01-05T16:01:12;13.10;99.90
59847;DHT22;45728;48.788;2.302;2023-01-05T16:03:40;13.00;99.90
59847;DHT22;45728;48.788;2.302;2023-01-05T16:06:27;13.00;99.90
59847;DHT22;45728;48.788;2.302;2023-01-05T16:08:55;12.90;99.90
59847;DHT22;45728;48.788;2.302;2023-01-05T16:11:31;12.90;99.90
59847;DHT22;45728;48.788;2.302;2023-01-05T16:16:43;12.90;99.90
59847;DHT22;45728;48.788;2.302;2023-01-05T16:24:47;12.80;99.90
59847;DHT22;45728;48.788;2.302;2023-01-05T16:27:15;12.70;99.90
59847;DHT22;45728;48.788;2.302;2023-01-05T16:29:45;12.60;99.90
59847;DHT22;45728;48.788;2.302;2023-01-05T16:32:32;12.60;99.90
59847;DHT22;45728;48.788;2.302;2023-01-05T16:43:33;12.60;99.90
59847;DHT22;45728;48.788;2.302;2023-01-05T16:51:11;12.70;99.90
59847;DHT22;45728;48.788;2.302;2023-01-05T16:53:53;12.70;99.90
59847;DHT22;45728;48.788;2.302;2023-01-05T16:58:58;12.70;99.90
59847;DHT22;45728;48.788;2.302;2023-01-05T17:01:36;12.70;99.90
59847;DHT22;45728;48.788;2.302;2023-01-05T17:04:13;12.70;99.90
59847;DHT22;45728;48.788;2.302;2023-01-05T17:06:43;12.60;99.90
59847;DHT22;45728;48.788;2.302;2023-01-05T17:09:25;12.70;99.90
59847;DHT22;45728;48.788;2.302;2023-01-05T17:11:51;12.60;99.90
59847;DHT22;45728;48.788;2.302;2023-01-05T17:14:19;12.60;99.90
59847;DHT22;45728;48.788;2.302;2023-01-05T17:16:46;12.50;99.90
59847;DHT22;45728;48.788;2.302;2023-01-05T17:19:14;12.50;99.90
59847;DHT22;45728;48.788;2.302;2023-01-05T17:21:43;12.40;99.90
59847;DHT22;45728;48.788;2.302;2023-01-05T17:24:12;12.40;99.90
59847;DHT22;45728;48.788;2.302;2023-01-05T17:26:41;12.40;99.90
59847;DHT22;45728;48.788;2.302;2023-01-05T17:29:13;12.30;99.90
59847;DHT22;45728;48.788;2.302;2023-01-05T17:31:41;12.30;99.90
59847;DHT22;45728;48.788;2.302;2023-01-05T17:34:07;12.30;99.90
59847;DHT22;45728;48.788;2.302;2023-01-05T17:36:34;12.30;99.90
59847;DHT22;45728;48.788;2.302;2023-01-05T17:39:01;12.20;99.90
59847;DHT22;45728;48.788;2.302;2023-01-05T17:41:28;12.30;99.90
59847;DHT22;45728;48.788;2.302;2023-01-05T17:43:54;12.20;99.90
59847;DHT22;45728;48.788;2.302;2023-01-05T17:46:26;12.20;99.90
59847;DHT22;45728;48.788;2.302;2023-01-05T17:48:53;12.20;99.90
59847;DHT22;45728;48.788;2.302;2023-01-05T17:51:19;12.20;99.90
59847;DHT22;45728;48.788;2.302;2023-01-05T17:53:46;12.20;99.90
59847;DHT22;45728;48.788;2.302;2023-01-05T17:56:12;12.20;99.90
59847;DHT22;45728;48.788;2.302;2023-01-05T17:58:38;12.20;99.90
59847;DHT22;45728;48.788;2.302;2023-01-05T18:01:04;12.20;99.90
59847;DHT22;45728;48.788;2.302;2023-01-05T18:03:31;12.20;99.90
59847;DHT22;45728;48.788;2.302;2023-01-05T18:05:59;12.20;99.90
59847;DHT22;45728;48.788;2.302;2023-01-05T18:08:26;12.10;99.90
59847;DHT22;45728;48.788;2.302;2023-01-05T18:10:52;12.10;99.90
59847;DHT22;45728;48.788;2.302;2023-01-05T18:13:19;12.10;99.90
59847;DHT22;45728;48.788;2.302;2023-01-05T18:15:46;12.10;99.90
59847;DHT22;45728;48.788;2.302;2023-01-05T18:18:14;12.10;99.90
59847;DHT22;45728;48.788;2.302;2023-01-05T18:20:41;12.10;99.90
59847;DHT22;45728;48.788;2.302;2023-01-05T18:23:08;12.00;99.90
59847;DHT22;45728;48.788;2.302;2023-01-05T18:25:35;12.00;99.90
59847;DHT22;45728;48.788;2.302;2023-01-05T18:28:02;12.10;99.90
59847;DHT22;45728;48.788;2.302;2023-01-05T18:30:29;12.10;99.90
59847;DHT22;45728;48.788;2.302;2023-01-05T18:32:55;12.00;99.90
59847;DHT22;45728;48.788;2.302;2023-01-05T18:35:22;12.00;99.90
59847;DHT22;45728;48.788;2.302;2023-01-05T18:37:48;12.00;99.90
59847;DHT22;45728;48.788;2.302;2023-01-05T18:40:14;12.10;99.90
59847;DHT22;45728;48.788;2.302;2023-01-05T18:42:40;12.00;99.90
59847;DHT22;45728;48.788;2.302;2023-01-05T18:45:07;12.00;99.90